createdAt,value
2018-03-29T00:02:16.132Z,73.50
2018-03-29T00:04:44.301Z,75.80
2018-03-29T00:07:12.455Z,68.50
2018-03-29T00:09:45.051Z,69.40
2018-03-29T00:12:14.201Z,68.10
2018-03-29T00:14:42.364Z,68.10
2018-03-29T00:17:11.548Z,71.10
2018-03-29T00:19:39.721Z,69.30
2018-03-29T00:22:07.909Z,69.30
2018-03-29T00:24:36.061Z,70.60
2018-03-29T00:27:05.938Z,69.90
2018-03-29T00:29:34.081Z,71.40
2018-03-29T00:32:02.377Z,70.20
2018-03-29T00:34:30.553Z,67.80
2018-03-29T00:36:59.576Z,68.30
2018-03-29T00:39:28.097Z,68.40
2018-03-29T00:41:56.304Z,68.70
2018-03-29T00:44:25.276Z,71.70
2018-03-29T00:46:53.490Z,72.10
2018-03-29T00:49:21.642Z,70.40
2018-03-29T00:51:49.820Z,67.20
2018-03-29T00:54:18.385Z,70.20
2018-03-29T00:56:47.333Z,68.20
2018-03-29T00:59:15.911Z,68.20
2018-03-29T01:01:44.072Z,67.40
2018-03-29T01:04:12.998Z,65.60
2018-03-29T01:06:41.268Z,65.50
2018-03-29T01:09:10.197Z,63.30
2018-03-29T01:11:39.150Z,66.10
2018-03-29T01:14:07.306Z,66.10
2018-03-29T01:16:36.566Z,64.20
2018-03-29T01:19:04.730Z,64.20
2018-03-29T01:21:32.869Z,62.80
2018-03-29T01:24:01.809Z,63.90
2018-03-29T01:26:30.809Z,64.40
2018-03-29T01:28:58.962Z,64.50
2018-03-29T01:31:27.885Z,61.50
2018-03-29T01:33:56.049Z,61.30
2018-03-29T01:36:24.212Z,60.20
2018-03-29T01:38:53.138Z,61.70
2018-03-29T01:41:21.325Z,61.70
2018-03-29T01:43:49.565Z,63.50
2018-03-29T01:46:17.727Z,63.90
2018-03-29T01:48:46.656Z,67.20
2018-03-29T01:51:15.453Z,67.20
2018-03-29T01:53:45.744Z,69.40
2018-03-29T01:56:13.955Z,64.30
2018-03-29T01:58:42.230Z,62.50
2018-03-29T02:01:10.376Z,65.30
2018-03-29T02:03:38.655Z,61.10
2018-03-29T02:06:06.899Z,64.30
2018-03-29T02:08:35.820Z,59.00
2018-03-29T02:11:03.984Z,59.00
2018-03-29T02:13:40.223Z,56.10
2018-03-29T02:16:09.860Z,55.90
2018-03-29T02:18:38.159Z,57.70
2018-03-29T02:21:06.316Z,57.60
2018-03-29T02:23:35.198Z,59.80
2018-03-29T02:26:04.252Z,57.80
2018-03-29T02:28:32.397Z,58.50
2018-03-29T02:31:00.574Z,57.90
2018-03-29T02:33:28.820Z,59.30
2018-03-29T02:35:56.974Z,57.50
2018-03-29T02:38:26.723Z,58.30
2018-03-29T02:40:54.908Z,58.20
2018-03-29T02:43:23.150Z,58.10
2018-03-29T02:45:52.136Z,58.20
2018-03-29T02:48:20.312Z,60.20
2018-03-29T02:50:48.480Z,61.40
2018-03-29T02:53:18.327Z,64.50
2018-03-29T02:55:46.548Z,64.40
2018-03-29T02:58:14.709Z,65.20
2018-03-29T03:00:43.964Z,66.20
2018-03-29T03:03:12.246Z,67.20
2018-03-29T03:05:40.393Z,67.30
2018-03-29T03:08:11.564Z,69.80
2018-03-29T03:10:39.753Z,72.50
2018-03-29T03:13:09.208Z,74.20
2018-03-29T03:15:37.395Z,74.60
2018-03-29T03:18:05.538Z,75.20
2018-03-29T03:20:33.707Z,74.00
2018-03-29T03:23:08.149Z,74.70
2018-03-29T03:25:37.382Z,75.10
2018-03-29T03:28:05.535Z,70.90
2018-03-29T03:30:34.457Z,73.90
2018-03-29T03:33:03.355Z,73.90
2018-03-29T03:35:31.496Z,78.20
2018-03-29T03:37:59.654Z,80.50
2018-03-29T03:40:29.960Z,83.10
2018-03-29T03:42:58.184Z,83.10
2018-03-29T03:45:26.330Z,86.50
2018-03-29T03:47:55.262Z,87.70
2018-03-29T03:50:24.174Z,89.40
2018-03-29T03:52:52.327Z,89.50
2018-03-29T03:55:20.473Z,89.80
2018-03-29T03:57:48.642Z,90.40
2018-03-29T04:00:16.798Z,91.20
2018-03-29T04:02:45.831Z,88.60
2018-03-29T04:05:13.983Z,88.10
2018-03-29T04:07:45.707Z,88.80
2018-03-29T04:10:13.858Z,88.80
2018-03-29T04:12:42.007Z,91.90
2018-03-29T04:15:10.188Z,91.10
2018-03-29T04:17:38.336Z,92.00
2018-03-29T04:20:07.252Z,92.60
2018-03-29T04:22:35.526Z,92.60
2018-03-29T04:25:04.556Z,91.70
2018-03-29T04:27:32.697Z,92.60
2018-03-29T04:30:00.844Z,93.80
2018-03-29T04:32:29.004Z,93.40
2018-03-29T04:34:57.928Z,94.20
2018-03-29T04:37:27.374Z,94.20
2018-03-29T04:39:55.506Z,94.60
2018-03-29T04:42:23.756Z,95.00
2018-03-29T04:44:51.992Z,95.10
2018-03-29T04:47:20.168Z,92.80
2018-03-29T04:49:48.342Z,91.60
2018-03-29T04:52:21.222Z,92.60
2018-03-29T04:54:49.732Z,91.60
2018-03-29T04:57:18.584Z,92.60
2018-03-29T04:59:46.849Z,92.00
2018-03-29T05:02:16.438Z,92.90
2018-03-29T05:04:46.488Z,94.40
2018-03-29T05:07:14.712Z,95.90
2018-03-29T05:09:43.438Z,96.30
2018-03-29T05:12:19.342Z,94.30
2018-03-29T05:14:49.968Z,93.10
2018-03-29T05:17:18.767Z,93.10
2018-03-29T05:19:46.916Z,92.40
2018-03-29T05:22:19.520Z,91.80
2018-03-29T05:24:47.891Z,91.60
2018-03-29T05:27:19.666Z,92.10
2018-03-29T05:29:49.200Z,92.10
2018-03-29T05:32:24.010Z,92.20
2018-03-29T05:34:52.184Z,91.70
2018-03-29T05:37:20.350Z,92.60
2018-03-29T05:39:48.523Z,93.00
2018-03-29T05:42:16.807Z,92.90
2018-03-29T05:44:44.956Z,91.80
2018-03-29T05:47:16.894Z,91.90
2018-03-29T05:49:45.110Z,91.90
2018-03-29T05:52:14.195Z,93.10
2018-03-29T05:54:43.524Z,92.80
2018-03-29T05:57:11.676Z,92.70
2018-03-29T05:59:40.595Z,93.00
2018-03-29T06:02:13.431Z,93.00
2018-03-29T06:04:42.173Z,94.00
2018-03-29T06:07:11.288Z,93.70
2018-03-29T06:09:39.553Z,92.70
2018-03-29T06:12:07.939Z,92.20
2018-03-29T06:14:41.958Z,90.40
2018-03-29T06:17:10.756Z,87.90
2018-03-29T06:19:38.898Z,83.10
2018-03-29T06:22:07.068Z,82.80
2018-03-29T06:24:35.293Z,82.90
2018-03-29T06:27:03.505Z,83.30
2018-03-29T06:29:31.676Z,83.70
2018-03-29T06:31:59.962Z,84.20
2018-03-29T06:34:28.139Z,85.80
2018-03-29T06:36:56.312Z,87.30
2018-03-29T06:39:24.591Z,89.10
2018-03-29T06:41:53.882Z,89.70
2018-03-29T06:44:22.024Z,85.30
2018-03-29T06:46:50.182Z,85.60
2018-03-29T06:49:18.362Z,79.90
2018-03-29T06:51:46.536Z,78.30
2018-03-29T06:54:15.279Z,74.70
2018-03-29T06:56:43.427Z,73.10
2018-03-29T06:59:12.349Z,71.00
2018-03-29T07:01:40.522Z,71.00
2018-03-29T07:04:08.734Z,73.50
2018-03-29T07:06:36.897Z,73.80
2018-03-29T07:09:05.906Z,68.70
2018-03-29T07:11:34.075Z,69.00
2018-03-29T07:14:02.250Z,65.80
2018-03-29T07:16:30.437Z,62.40
2018-03-29T07:18:58.663Z,59.40
2018-03-29T07:21:26.818Z,59.80
2018-03-29T07:23:55.909Z,57.20
2018-03-29T07:26:24.133Z,52.50
2018-03-29T07:28:52.282Z,54.20
2018-03-29T07:31:20.761Z,48.00
2018-03-29T07:33:48.931Z,49.20
2018-03-29T07:36:17.090Z,47.70
2018-03-29T07:38:45.264Z,48.10
2018-03-29T07:41:13.427Z,48.90
2018-03-29T07:43:42.425Z,47.20
2018-03-29T07:46:10.587Z,47.20
2018-03-29T07:48:38.774Z,44.40
2018-03-29T07:51:06.912Z,44.90
2018-03-29T07:53:35.120Z,42.90
2018-03-29T07:56:03.266Z,46.20
2018-03-29T07:58:31.413Z,42.90
2018-03-29T08:00:59.610Z,43.30
2018-03-29T08:03:27.818Z,41.40
2018-03-29T08:05:55.964Z,42.00
2018-03-29T08:08:24.978Z,42.50
2018-03-29T08:10:53.122Z,45.80
2018-03-29T08:13:21.344Z,41.50
2018-03-29T08:15:50.058Z,43.50
2018-03-29T08:18:18.403Z,41.50
2018-03-29T08:20:46.792Z,41.50
2018-03-29T08:23:15.083Z,38.20
2018-03-29T08:25:45.179Z,43.10
2018-03-29T08:28:13.483Z,43.10
2018-03-29T08:30:41.644Z,38.00
2018-03-29T08:33:10.910Z,39.10
2018-03-29T08:35:39.040Z,40.50
2018-03-29T08:38:07.208Z,39.10
2018-03-29T08:40:35.371Z,37.10
2018-03-29T08:43:13.616Z,37.90
2018-03-29T08:45:41.844Z,35.40
2018-03-29T08:48:10.597Z,37.40
2018-03-29T08:50:39.546Z,38.10
2018-03-29T08:53:08.715Z,37.20
2018-03-29T08:55:37.660Z,37.40
2018-03-29T08:58:05.823Z,37.70
2018-03-29T09:00:34.014Z,35.10
2018-03-29T09:03:02.263Z,36.50
2018-03-29T09:05:30.422Z,33.90
2018-03-29T09:07:59.353Z,34.00
2018-03-29T09:10:27.510Z,33.80
2018-03-29T09:12:55.758Z,34.00
2018-03-29T09:15:23.970Z,32.70
2018-03-29T09:17:52.089Z,32.80
2018-03-29T09:20:20.263Z,34.20
2018-03-29T09:22:49.272Z,32.70
2018-03-29T09:25:18.110Z,32.80
2018-03-29T09:27:47.856Z,33.60
2018-03-29T09:30:16.367Z,30.80
2018-03-29T09:32:44.626Z,33.90
2018-03-29T09:35:12.841Z,33.40
2018-03-29T09:37:41.011Z,29.80
2018-03-29T09:40:09.210Z,29.40
2018-03-29T09:42:37.726Z,29.80
2018-03-29T09:45:05.893Z,28.60
2018-03-29T09:47:34.056Z,31.10
2018-03-29T09:50:02.995Z,31.50
2018-03-29T09:52:31.243Z,31.50
2018-03-29T09:54:59.437Z,30.50
2018-03-29T09:57:28.218Z,31.40
2018-03-29T09:59:56.367Z,30.60
2018-03-29T10:02:32.053Z,32.40
2018-03-29T10:05:03.123Z,32.20
2018-03-29T10:07:35.257Z,29.70
2018-03-29T10:10:03.450Z,30.30
2018-03-29T10:12:32.159Z,30.30
2018-03-29T10:15:00.314Z,28.40
2018-03-29T10:17:29.078Z,29.80
2018-03-29T10:19:57.223Z,28.80
2018-03-29T10:22:25.518Z,28.80
2018-03-29T10:24:53.699Z,27.60
2018-03-29T10:27:22.723Z,28.40
2018-03-29T10:29:50.866Z,28.90
2018-03-29T10:32:21.117Z,27.30
2018-03-29T10:34:49.292Z,26.80
2018-03-29T10:37:17.443Z,25.10
2018-03-29T10:39:45.659Z,25.30
2018-03-29T10:42:13.827Z,24.20
2018-03-29T10:44:42.037Z,23.10
2018-03-29T10:47:10.199Z,23.30
2018-03-29T10:49:39.159Z,24.50
2018-03-29T10:52:07.317Z,24.40
2018-03-29T10:54:35.469Z,26.30
2018-03-29T10:57:03.633Z,28.20
2018-03-29T10:59:31.800Z,26.30
2018-03-29T11:02:01.013Z,24.20
2018-03-29T11:04:29.189Z,24.20
2018-03-29T11:06:57.392Z,24.50
2018-03-29T11:09:25.781Z,22.90
2018-03-29T11:11:57.814Z,24.40
2018-03-29T11:14:26.283Z,25.20
2018-03-29T11:16:54.631Z,24.80
2018-03-29T11:19:23.562Z,23.80
2018-03-29T11:21:55.619Z,23.50
2018-03-29T11:24:25.731Z,24.00
2018-03-29T11:26:53.971Z,25.10
2018-03-29T11:29:22.726Z,24.30
2018-03-29T11:31:51.009Z,24.50
2018-03-29T11:34:19.143Z,22.30
2018-03-29T11:36:47.290Z,23.00
2018-03-29T11:39:15.467Z,23.10
2018-03-29T11:41:43.630Z,22.70
2018-03-29T11:44:11.805Z,22.10
2018-03-29T11:46:39.960Z,22.20
2018-03-29T11:49:08.136Z,24.40
2018-03-29T11:51:36.294Z,23.00
2018-03-29T11:54:04.605Z,22.60
2018-03-29T11:56:32.809Z,22.70
2018-03-29T11:59:00.983Z,21.60
2018-03-29T12:01:29.947Z,22.20
2018-03-29T12:03:58.153Z,21.40
2018-03-29T12:06:26.304Z,20.20
2018-03-29T12:08:54.469Z,20.90
2018-03-29T12:11:22.760Z,20.10
2018-03-29T12:13:51.844Z,20.80
2018-03-29T12:16:20.015Z,20.50
2018-03-29T12:18:48.178Z,19.20
2018-03-29T12:21:16.330Z,19.50
2018-03-29T12:23:44.651Z,22.00
2018-03-29T12:26:12.816Z,19.40
2018-03-29T12:28:40.984Z,20.10
2018-03-29T12:31:09.746Z,20.20
2018-03-29T12:33:44.583Z,19.50
2018-03-29T12:36:12.831Z,21.20
2018-03-29T12:38:40.981Z,21.10
2018-03-29T12:41:09.202Z,21.90
2018-03-29T12:43:37.374Z,21.00
2018-03-29T12:46:05.638Z,21.10
2018-03-29T12:48:34.641Z,20.20
2018-03-29T12:51:02.874Z,18.50
2018-03-29T12:53:32.608Z,18.00
2018-03-29T12:56:00.771Z,18.70
2018-03-29T12:58:28.960Z,18.20
2018-03-29T13:00:57.113Z,20.00
2018-03-29T13:03:25.482Z,18.40
2018-03-29T13:05:55.089Z,18.50
2018-03-29T13:08:24.182Z,16.60
2018-03-29T13:10:52.375Z,16.60
2018-03-29T13:13:20.570Z,17.10
2018-03-29T13:15:49.553Z,19.20
2018-03-29T13:18:17.718Z,16.20
2018-03-29T13:20:45.920Z,17.00
2018-03-29T13:23:27.864Z,17.00
2018-03-29T13:26:11.443Z,18.70
2018-03-29T13:28:39.620Z,18.70
2018-03-29T13:31:08.870Z,16.80
2018-03-29T13:33:38.418Z,18.50
2018-03-29T13:36:06.742Z,18.50
2018-03-29T13:38:35.125Z,19.10
2018-03-29T13:41:03.454Z,19.40
2018-03-29T13:43:37.502Z,19.60
2018-03-29T13:46:11.163Z,17.50
2018-03-29T13:48:40.123Z,18.00
2018-03-29T13:51:08.410Z,18.10
2018-03-29T13:53:36.787Z,16.90
2018-03-29T13:56:04.972Z,17.30
2018-03-29T13:58:33.171Z,16.70
2018-03-29T14:01:01.521Z,16.00
2018-03-29T14:03:30.537Z,17.10
2018-03-29T14:05:58.709Z,17.20
2018-03-29T14:15:59.556Z,15.70
2018-03-29T14:38:45.911Z,16.30
2018-03-29T14:41:14.358Z,20.60
2018-03-29T14:43:42.679Z,20.70
2018-03-29T14:46:10.860Z,20.90
2018-03-29T14:48:39.034Z,21.50
2018-03-29T14:51:07.247Z,21.80
2018-03-29T14:53:35.367Z,22.20
2018-03-29T14:56:03.545Z,22.40
2018-03-29T14:58:31.688Z,22.00
2018-03-29T15:00:59.894Z,22.00
2018-03-29T15:03:28.901Z,23.30
2018-03-29T15:05:57.070Z,23.30
2018-03-29T15:08:25.250Z,23.10
2018-03-29T15:10:53.405Z,22.90
2018-03-29T15:13:22.616Z,22.70
2018-03-29T15:15:50.793Z,23.50
2018-03-29T15:18:19.022Z,22.20
2018-03-29T15:20:48.070Z,22.10
2018-03-29T15:23:16.344Z,21.60
2018-03-29T15:25:44.498Z,22.50
2018-03-29T15:28:12.698Z,22.20
2018-03-29T15:30:40.902Z,21.80
2018-03-29T15:33:09.061Z,21.30
2018-03-29T15:35:37.224Z,21.80
2018-03-29T15:38:05.751Z,21.90
2018-03-29T15:40:35.407Z,23.00
2018-03-29T15:43:08.430Z,23.00
2018-03-29T15:45:38.982Z,22.30
2018-03-29T15:48:09.156Z,22.60
2018-03-29T15:50:37.350Z,21.30
2018-03-29T15:53:05.514Z,21.90
2018-03-29T15:55:34.547Z,23.10
2018-03-29T15:58:02.745Z,22.70
2018-03-29T16:00:30.993Z,22.30
2018-03-29T16:02:59.964Z,21.80
2018-03-29T16:05:28.169Z,22.30
2018-03-29T16:08:02.520Z,22.70
2018-03-29T16:10:33.038Z,22.70
2018-03-29T16:13:01.741Z,23.30
2018-03-29T16:15:32.358Z,22.20
2018-03-29T16:18:02.876Z,23.20
2018-03-29T16:20:32.227Z,23.30
2018-03-29T16:23:01.282Z,23.80
2018-03-29T16:25:31.408Z,23.90
2018-03-29T16:27:59.834Z,24.90
2018-03-29T16:30:28.911Z,24.00
2018-03-29T16:32:57.834Z,23.50
2018-03-29T16:35:28.712Z,23.90
2018-03-29T16:37:56.951Z,24.90
2018-03-29T16:40:25.126Z,24.10
2018-03-29T16:42:56.645Z,25.30
2018-03-29T16:45:24.883Z,25.30
2018-03-29T16:47:55.772Z,24.40
2018-03-29T16:50:24.608Z,24.80
2018-03-29T16:52:57.002Z,25.70
2018-03-29T16:55:31.076Z,24.90
2018-03-29T16:58:13.502Z,25.30
2018-03-29T17:00:42.198Z,25.80
2018-03-29T17:03:18.261Z,25.40
2018-03-29T17:05:46.413Z,25.30
2018-03-29T17:08:16.353Z,25.00
2018-03-29T17:10:45.668Z,25.00
2018-03-29T17:13:17.981Z,26.20
2018-03-29T17:15:49.269Z,25.50
2018-03-29T17:18:23.115Z,25.00
2018-03-29T17:20:54.856Z,25.60
2018-03-29T17:23:25.583Z,24.60
2018-03-29T17:25:54.490Z,24.60
2018-03-29T17:28:24.260Z,25.00
2018-03-29T17:30:54.502Z,25.10
2018-03-29T17:33:25.367Z,25.70
2018-03-29T17:35:53.664Z,25.60
2018-03-29T17:38:21.821Z,26.20
2018-03-29T17:40:50.001Z,27.10
2018-03-29T17:43:18.162Z,26.50
2018-03-29T17:45:46.322Z,27.70
2018-03-29T17:48:14.499Z,28.20
2018-03-29T17:50:43.440Z,28.70
2018-03-29T17:53:12.489Z,29.50
2018-03-29T17:55:41.386Z,29.40
2018-03-29T17:58:10.300Z,30.80
2018-03-29T18:00:39.089Z,31.20
2018-03-29T18:03:10.885Z,31.20
2018-03-29T18:05:42.705Z,33.80
2018-03-29T18:08:11.320Z,34.90
2018-03-29T18:10:44.415Z,37.40
2018-03-29T18:13:15.776Z,38.00
2018-03-29T18:15:44.527Z,40.70
2018-03-29T18:18:13.049Z,42.10
2018-03-29T18:20:42.097Z,43.40
2018-03-29T18:23:10.621Z,45.90
2018-03-29T18:25:40.527Z,46.20
2018-03-29T18:28:10.521Z,46.10
2018-03-29T18:30:39.516Z,47.60
2018-03-29T18:33:08.715Z,47.60
2018-03-29T18:35:37.881Z,47.20
2018-03-29T18:38:06.332Z,49.20
2018-03-29T18:40:35.387Z,51.50
2018-03-29T18:43:04.469Z,54.30
2018-03-29T18:45:34.285Z,54.20
2018-03-29T18:48:03.118Z,55.20
2018-03-29T18:50:31.277Z,55.90
2018-03-29T18:52:59.556Z,57.80
2018-03-29T18:55:28.032Z,55.20
2018-03-29T18:57:57.211Z,56.50
2018-03-29T19:00:25.375Z,55.50
2018-03-29T19:02:56.252Z,58.10
2018-03-29T19:05:24.404Z,58.40
2018-03-29T19:07:54.319Z,59.90
2018-03-29T19:10:23.335Z,59.20
2018-03-29T19:12:52.671Z,59.30
2018-03-29T19:15:20.900Z,60.70
2018-03-29T19:17:49.104Z,61.20
2018-03-29T19:20:17.309Z,61.90
2018-03-29T19:22:45.511Z,63.50
2018-03-29T19:25:14.525Z,64.70
2018-03-29T19:27:42.823Z,63.30
2018-03-29T19:30:11.711Z,66.00
2018-03-29T19:32:40.861Z,66.00
2018-03-29T19:35:09.029Z,62.20
2018-03-29T19:37:37.197Z,59.80
2018-03-29T19:40:06.123Z,62.60
2018-03-29T19:42:34.366Z,65.00
2018-03-29T19:45:02.621Z,65.30
2018-03-29T19:47:32.298Z,65.30
2018-03-29T19:50:00.472Z,65.70
2018-03-29T19:52:35.496Z,65.10
2018-03-29T19:55:04.740Z,65.50
2018-03-29T19:57:33.327Z,65.90
2018-03-29T20:00:01.610Z,68.90
2018-03-29T20:02:30.981Z,69.70
2018-03-29T20:04:59.826Z,72.10
2018-03-29T20:07:31.112Z,69.80
2018-03-29T20:09:59.586Z,67.80
2018-03-29T20:12:29.889Z,66.20
2018-03-29T20:14:59.714Z,69.40
2018-03-29T20:17:31.693Z,69.50
2018-03-29T20:20:02.648Z,71.80
2018-03-29T20:22:39.341Z,71.80
2018-03-29T20:25:08.681Z,70.40
2018-03-29T20:27:39.625Z,72.40
2018-03-29T20:30:10.299Z,69.80
2018-03-29T20:32:39.870Z,69.80
2018-03-29T20:35:13.280Z,69.30
2018-03-29T20:37:47.249Z,69.30
2018-03-29T20:40:19.132Z,71.10
2018-03-29T20:42:49.021Z,71.20
2018-03-29T20:47:55.039Z,72.60
2018-03-29T20:50:36.747Z,71.30
2018-03-29T20:55:41.947Z,70.10
2018-03-29T20:58:12.275Z,71.10
2018-03-29T21:00:43.706Z,73.60
2018-03-29T21:03:15.890Z,74.40
2018-03-29T21:05:50.512Z,74.30
2018-03-29T21:08:21.212Z,74.40
2018-03-29T21:11:01.426Z,71.10
2018-03-29T21:21:37.107Z,71.40
2018-03-29T21:24:11.846Z,71.90
2018-03-29T21:32:08.193Z,76.40
2018-03-29T21:37:16.639Z,73.50
2018-03-29T21:45:02.911Z,77.00
2018-03-29T21:50:07.687Z,79.90
2018-03-29T21:52:44.126Z,81.30
2018-03-29T21:55:16.479Z,82.50
2018-03-29T21:57:47.681Z,82.40
2018-03-29T22:00:17.162Z,84.40
2018-03-29T22:02:50.021Z,84.80
2018-03-29T22:05:19.658Z,75.10
2018-03-29T22:07:53.863Z,74.40
2018-03-29T22:10:28.958Z,75.50
2018-03-29T22:20:48.186Z,81.40
2018-03-29T22:23:27.096Z,82.30
2018-03-29T22:28:38.960Z,80.20
2018-03-29T22:31:09.915Z,82.30
2018-03-29T22:36:21.213Z,80.90
2018-03-29T22:39:05.996Z,78.60
2018-03-29T22:41:38.834Z,76.90
2018-03-29T22:44:09.729Z,78.40
2018-03-29T22:46:54.269Z,77.80
2018-03-29T22:49:33.496Z,79.10
2018-03-29T22:52:07.239Z,79.20
2018-03-29T22:54:40.334Z,79.80
2018-03-29T22:57:18.719Z,80.90
2018-03-29T22:59:48.125Z,81.80
2018-03-29T23:02:17.032Z,83.10
2018-03-29T23:04:47.602Z,83.10
2018-03-29T23:07:19.106Z,82.80
2018-03-29T23:09:48.312Z,80.50
2018-03-29T23:12:23.189Z,77.80
2018-03-29T23:17:32.887Z,80.50
2018-03-29T23:20:04.585Z,79.70
2018-03-29T23:22:42.401Z,79.30
2018-03-29T23:25:18.658Z,80.70
2018-03-29T23:27:51.922Z,81.80
2018-03-29T23:30:23.650Z,80.40
2018-03-29T23:35:29.334Z,79.50
2018-03-29T23:38:03.233Z,79.50
2018-03-29T23:43:11.388Z,83.90
2018-03-29T23:48:13.827Z,86.60
2018-03-29T23:50:46.854Z,89.50
2018-03-29T23:53:33.388Z,89.80
2018-03-29T23:56:03.679Z,83.30
2018-03-29T23:58:34.344Z,82.40
